createdAt,value
2023-01-30T00:01:39.811Z,12.20
2023-01-30T00:04:06.539Z,12.40
2023-01-30T00:06:33.840Z,11.17
2023-01-30T00:09:00.601Z,12.27
2023-01-30T00:11:29.981Z,12.87
2023-01-30T00:13:56.924Z,13.40
2023-01-30T00:16:24.133Z,13.10
2023-01-30T00:18:50.861Z,12.03
2023-01-30T00:21:17.822Z,12.03
2023-01-30T00:23:44.948Z,13.00
2023-01-30T00:26:12.244Z,11.87
2023-01-30T00:28:39.771Z,12.30
2023-01-30T00:31:06.938Z,12.43
2023-01-30T00:33:33.823Z,13.67
2023-01-30T00:36:01.738Z,12.60
2023-01-30T00:38:28.841Z,13.27
2023-01-30T00:40:55.590Z,13.60
2023-01-30T00:43:40.683Z,13.27
2023-01-30T00:46:38.208Z,13.07
2023-01-30T00:49:04.859Z,13.00
2023-01-30T00:51:31.962Z,12.37
2023-01-30T00:53:59.171Z,13.30
2023-01-30T00:56:26.220Z,13.47
2023-01-30T00:58:52.989Z,14.13
2023-01-30T01:01:20.046Z,14.47
2023-01-30T01:03:46.853Z,14.83
2023-01-30T01:06:13.576Z,14.57
2023-01-30T01:08:40.900Z,13.80
2023-01-30T01:11:07.589Z,13.57
2023-01-30T01:13:34.686Z,13.70
2023-01-30T01:16:01.353Z,14.00
2023-01-30T01:18:28.246Z,14.80
2023-01-30T01:20:55.506Z,14.30
2023-01-30T01:23:22.173Z,14.87
2023-01-30T01:25:48.839Z,13.70
2023-01-30T01:28:15.841Z,14.30
2023-01-30T01:30:42.558Z,15.13
2023-01-30T01:33:09.618Z,15.13
2023-01-30T01:35:41.048Z,14.00
2023-01-30T01:38:08.134Z,13.93
2023-01-30T01:40:53.557Z,13.53
2023-01-30T01:43:23.058Z,14.10
2023-01-30T01:45:58.582Z,14.27
2023-01-30T01:48:51.550Z,13.93
2023-01-30T01:51:31.514Z,13.50
2023-01-30T01:54:12.005Z,14.37
2023-01-30T01:56:42.667Z,14.43
2023-01-30T01:59:30.102Z,13.00
2023-01-30T02:02:00.914Z,13.60
2023-01-30T02:05:01.943Z,13.67
2023-01-30T02:07:47.763Z,13.60
2023-01-30T02:10:19.233Z,13.20
2023-01-30T02:12:46.563Z,13.20
2023-01-30T02:15:13.637Z,13.77
2023-01-30T02:17:40.411Z,13.07
2023-01-30T02:20:25.853Z,13.70
2023-01-30T02:23:11.093Z,12.83
2023-01-30T02:26:05.190Z,13.43
2023-01-30T02:29:10.168Z,13.97
2023-01-30T02:32:07.664Z,13.00
2023-01-30T02:34:34.742Z,14.17
2023-01-30T02:37:39.897Z,14.17
2023-01-30T02:40:37.692Z,13.70
2023-01-30T02:43:19.633Z,13.87
2023-01-30T02:46:11.349Z,13.93
2023-01-30T02:48:56.909Z,14.13
2023-01-30T02:51:29.031Z,14.57
2023-01-30T02:53:56.324Z,13.33
2023-01-30T02:56:23.684Z,14.03
2023-01-30T02:59:05.966Z,14.63
2023-01-30T03:01:51.693Z,14.67
2023-01-30T03:05:16.191Z,13.67
2023-01-30T03:08:07.289Z,13.87
2023-01-30T03:10:41.678Z,14.13
2023-01-30T03:13:18.039Z,13.47
2023-01-30T03:16:09.776Z,14.07
2023-01-30T03:18:36.533Z,14.23
2023-01-30T03:21:06.554Z,13.73
2023-01-30T03:23:33.703Z,14.07
2023-01-30T03:26:02.817Z,13.40
2023-01-30T03:28:29.863Z,13.37
2023-01-30T03:30:57.091Z,14.43
2023-01-30T03:33:23.848Z,14.40
2023-01-30T03:35:52.149Z,14.60
2023-01-30T03:38:19.323Z,14.20
2023-01-30T03:40:46.029Z,13.37
2023-01-30T03:43:13.182Z,13.83
2023-01-30T03:45:40.276Z,15.37
2023-01-30T03:48:07.380Z,14.00
2023-01-30T03:50:34.756Z,13.37
2023-01-30T03:53:01.548Z,12.27
2023-01-30T03:55:28.675Z,12.80
2023-01-30T03:57:56.862Z,13.10
2023-01-30T04:00:24.103Z,13.43
2023-01-30T04:02:51.400Z,12.77
2023-01-30T04:05:19.100Z,12.63
2023-01-30T04:07:46.423Z,12.63
2023-01-30T04:10:15.478Z,12.70
2023-01-30T04:12:43.023Z,12.77
2023-01-30T04:15:10.459Z,12.60
2023-01-30T04:17:37.596Z,11.87
2023-01-30T04:20:04.799Z,11.53
2023-01-30T04:22:31.864Z,12.63
2023-01-30T04:24:58.950Z,11.97
2023-01-30T04:27:25.645Z,11.67
2023-01-30T04:29:52.681Z,11.57
2023-01-30T04:32:19.791Z,11.97
2023-01-30T04:34:46.434Z,11.40
2023-01-30T04:37:13.440Z,11.17
2023-01-30T04:39:40.524Z,11.90
2023-01-30T04:42:07.635Z,12.40
2023-01-30T04:44:34.716Z,11.17
2023-01-30T04:47:01.383Z,12.47
2023-01-30T04:49:28.534Z,12.47
2023-01-30T04:51:55.647Z,12.40
2023-01-30T04:54:22.783Z,12.97
2023-01-30T04:56:49.495Z,12.27
2023-01-30T04:59:16.578Z,12.73
2023-01-30T05:01:43.691Z,13.00
2023-01-30T05:04:10.454Z,11.83
2023-01-30T05:06:37.508Z,13.43
2023-01-30T05:09:05.073Z,13.23
2023-01-30T05:11:32.372Z,13.33
2023-01-30T05:13:59.413Z,13.23
2023-01-30T05:16:26.861Z,13.10
2023-01-30T05:18:53.955Z,13.60
2023-01-30T05:21:23.317Z,13.67
2023-01-30T05:23:51.793Z,13.80
2023-01-30T05:26:18.903Z,13.07
2023-01-30T05:28:54.912Z,15.30
2023-01-30T05:31:22.179Z,13.43
2023-01-30T05:33:50.432Z,14.43
2023-01-30T05:36:19.267Z,13.67
2023-01-30T05:38:46.509Z,14.50
2023-01-30T05:41:15.602Z,13.83
2023-01-30T05:43:43.013Z,14.10
2023-01-30T05:46:11.937Z,13.83
2023-01-30T05:48:39.102Z,14.20
2023-01-30T05:51:06.263Z,14.23
2023-01-30T05:53:37.194Z,16.73
2023-01-30T05:56:05.357Z,17.73
2023-01-30T05:58:33.184Z,15.97
2023-01-30T06:01:04.766Z,12.90
2023-01-30T06:03:32.225Z,13.93
2023-01-30T06:05:58.967Z,12.00
2023-01-30T06:08:26.095Z,11.90
2023-01-30T06:10:53.187Z,12.00
2023-01-30T06:13:20.310Z,13.40
2023-01-30T06:15:47.490Z,12.33
2023-01-30T06:18:14.621Z,11.90
2023-01-30T06:20:41.300Z,11.63
2023-01-30T06:23:08.373Z,12.17
2023-01-30T06:25:35.050Z,11.27
2023-01-30T06:28:01.879Z,11.70
2023-01-30T06:30:29.026Z,12.00
2023-01-30T06:32:55.806Z,11.77
2023-01-30T06:35:22.887Z,10.50
2023-01-30T06:37:49.685Z,11.70
2023-01-30T06:40:16.924Z,11.03
2023-01-30T06:42:47.465Z,10.97
2023-01-30T06:45:15.364Z,11.17
2023-01-30T06:47:47.249Z,10.13
2023-01-30T06:50:14.652Z,10.47
2023-01-30T06:52:46.513Z,10.37
2023-01-30T06:55:16.819Z,10.83
2023-01-30T06:57:44.611Z,10.07
2023-01-30T07:00:17.577Z,9.30
2023-01-30T07:02:45.043Z,9.77
2023-01-30T07:05:11.973Z,10.20
2023-01-30T07:07:39.390Z,10.50
2023-01-30T07:10:08.943Z,10.00
2023-01-30T07:12:36.790Z,11.33
2023-01-30T07:15:04.927Z,11.07
2023-01-30T07:17:31.988Z,11.97
2023-01-30T07:19:59.012Z,10.70
2023-01-30T07:22:25.935Z,10.37
2023-01-30T07:24:52.586Z,10.27
2023-01-30T07:27:19.712Z,10.67
2023-01-30T07:29:46.434Z,11.33
2023-01-30T07:32:16.112Z,11.07
2023-01-30T07:34:42.926Z,10.50
2023-01-30T07:37:10.041Z,11.63
2023-01-30T07:39:36.753Z,10.60
2023-01-30T07:42:04.042Z,10.53
2023-01-30T07:44:31.326Z,10.37
2023-01-30T07:46:58.438Z,11.50
2023-01-30T07:49:25.148Z,11.17
2023-01-30T07:51:52.493Z,11.57
2023-01-30T07:54:19.265Z,10.73
2023-01-30T07:56:45.945Z,10.60
2023-01-30T07:59:13.128Z,11.30
2023-01-30T08:01:39.762Z,11.37
2023-01-30T08:04:06.906Z,10.93
2023-01-30T08:06:38.934Z,10.57
2023-01-30T08:09:06.745Z,10.90
2023-01-30T08:11:33.896Z,11.93
2023-01-30T08:14:00.766Z,10.93
2023-01-30T08:16:27.994Z,11.50
2023-01-30T08:18:54.656Z,10.90
2023-01-30T08:21:21.749Z,10.70
2023-01-30T08:23:48.857Z,10.70
2023-01-30T08:26:16.010Z,10.20
2023-01-30T08:28:42.724Z,10.50
2023-01-30T08:31:11.945Z,11.23
2023-01-30T08:33:38.734Z,10.53
2023-01-30T08:36:05.866Z,10.53
2023-01-30T08:38:32.978Z,10.40
2023-01-30T08:41:01.131Z,10.50
2023-01-30T08:43:27.934Z,11.83
2023-01-30T08:45:55.161Z,10.90
2023-01-30T08:48:22.205Z,10.10
2023-01-30T08:50:55.347Z,10.73
2023-01-30T08:53:22.954Z,11.13
2023-01-30T08:55:53.652Z,10.10
2023-01-30T08:58:21.561Z,10.60
2023-01-30T09:00:49.449Z,10.00
2023-01-30T09:03:16.860Z,10.20
2023-01-30T09:05:43.976Z,9.80
2023-01-30T09:08:10.850Z,9.40
2023-01-30T09:10:37.590Z,9.60
2023-01-30T09:13:05.366Z,9.60
2023-01-30T09:15:33.990Z,10.00
2023-01-30T09:18:00.776Z,8.80
2023-01-30T09:20:27.978Z,8.57
2023-01-30T09:22:55.197Z,8.13
2023-01-30T09:25:21.927Z,7.93
2023-01-30T09:27:50.066Z,7.20
2023-01-30T09:30:17.621Z,6.67
2023-01-30T09:32:44.906Z,5.90
2023-01-30T09:35:11.701Z,6.40
2023-01-30T09:37:38.809Z,4.97
2023-01-30T09:40:06.449Z,4.40
2023-01-30T09:43:08.133Z,4.00
2023-01-30T09:45:35.194Z,4.10
2023-01-30T09:48:07.714Z,3.63
2023-01-30T09:51:13.999Z,3.60
2023-01-30T09:53:41.076Z,3.83
2023-01-30T09:56:08.307Z,4.00
2023-01-30T09:58:56.556Z,3.27
2023-01-30T10:01:44.205Z,3.87
2023-01-30T10:04:28.292Z,3.87
2023-01-30T10:07:17.103Z,3.57
2023-01-30T10:09:54.703Z,3.10
2023-01-30T10:12:24.417Z,3.00
2023-01-30T10:15:10.218Z,3.33
2023-01-30T10:17:53.529Z,3.10
2023-01-30T10:20:23.524Z,3.47
2023-01-30T10:22:59.303Z,3.27
2023-01-30T10:25:41.560Z,3.30
2023-01-30T10:28:32.894Z,3.67
2023-01-30T10:31:09.483Z,3.43
2023-01-30T10:34:01.394Z,3.30
2023-01-30T10:36:33.881Z,3.40
2023-01-30T10:39:02.359Z,3.20
2023-01-30T10:41:32.409Z,3.77
2023-01-30T10:44:09.777Z,3.37
2023-01-30T10:46:52.375Z,3.07
2023-01-30T10:49:24.001Z,3.57
2023-01-30T10:52:07.574Z,3.60
2023-01-30T10:54:34.608Z,3.47
2023-01-30T10:57:14.628Z,3.53
2023-01-30T10:59:50.601Z,3.40
2023-01-30T11:02:33.881Z,3.50
2023-01-30T11:05:03.721Z,3.60
2023-01-30T11:07:32.209Z,3.60
2023-01-30T11:10:00.098Z,3.13
2023-01-30T11:12:27.363Z,3.23
2023-01-30T11:14:59.192Z,3.43
2023-01-30T11:17:45.226Z,2.90
2023-01-30T11:20:17.119Z,3.37
2023-01-30T11:22:48.695Z,3.43
2023-01-30T11:25:21.041Z,3.53
2023-01-30T11:28:19.466Z,3.77
2023-01-30T11:30:58.725Z,3.40
2023-01-30T11:33:36.920Z,3.60
2023-01-30T11:36:08.756Z,2.67
2023-01-30T11:38:38.686Z,3.60
2023-01-30T11:41:07.553Z,3.40
2023-01-30T11:43:37.109Z,3.67
2023-01-30T11:46:05.712Z,3.13
2023-01-30T11:49:38.867Z,2.93
2023-01-30T11:51:23.795Z,3.40
2023-01-30T11:53:58.883Z,3.40
2023-01-30T11:56:32.399Z,3.40
2023-01-30T11:59:02.438Z,3.53
2023-01-30T12:01:31.456Z,4.20
2023-01-30T12:03:59.512Z,3.73
2023-01-30T12:06:31.818Z,3.50
2023-01-30T12:08:58.694Z,3.00
2023-01-30T12:11:31.618Z,3.60
2023-01-30T12:14:17.488Z,3.13
2023-01-30T12:16:53.492Z,3.43
2023-01-30T12:19:45.245Z,3.37
2023-01-30T12:22:12.337Z,3.37
2023-01-30T12:24:48.737Z,3.63
2023-01-30T12:27:28.023Z,3.40
2023-01-30T12:29:59.989Z,3.10
2023-01-30T12:32:28.719Z,3.13
2023-01-30T12:34:56.309Z,3.63
2023-01-30T12:37:29.096Z,3.10
2023-01-30T12:39:59.071Z,2.90
2023-01-30T12:42:47.717Z,3.30
2023-01-30T12:45:14.773Z,3.97
2023-01-30T12:47:53.882Z,3.17
2023-01-30T12:50:21.412Z,4.10
2023-01-30T12:52:48.466Z,3.63
2023-01-30T12:55:36.578Z,3.67
2023-01-30T12:58:21.516Z,4.13
2023-01-30T13:01:00.606Z,3.03
2023-01-30T13:03:41.653Z,3.60
2023-01-30T13:06:30.197Z,3.53
2023-01-30T13:09:15.036Z,3.90
2023-01-30T13:11:56.393Z,3.70
2023-01-30T13:14:50.167Z,3.00
2023-01-30T13:17:44.573Z,3.37
2023-01-30T13:20:34.595Z,3.33
2023-01-30T13:23:38.116Z,3.20
2023-01-30T13:26:08.267Z,2.60
2023-01-30T13:28:39.066Z,3.00
2023-01-30T13:31:07.805Z,2.83
2023-01-30T13:33:37.338Z,3.03
2023-01-30T13:36:11.433Z,3.20
2023-01-30T13:38:41.061Z,3.40
2023-01-30T13:41:10.523Z,2.50
2023-01-30T13:43:40.134Z,2.30
2023-01-30T13:46:10.972Z,3.00
2023-01-30T13:48:38.288Z,3.03
2023-01-30T13:51:23.925Z,3.20
2023-01-30T13:54:03.599Z,3.60
2023-01-30T13:56:49.492Z,3.17
2023-01-30T13:59:35.597Z,2.90
2023-01-30T14:02:10.159Z,4.03
2023-01-30T14:04:38.614Z,4.37
2023-01-30T14:07:23.929Z,4.43
2023-01-30T14:10:04.266Z,3.80
2023-01-30T14:12:41.749Z,3.43
2023-01-30T14:15:11.922Z,3.10
2023-01-30T14:17:39.241Z,3.63
2023-01-30T14:20:15.546Z,4.00
2023-01-30T14:22:52.736Z,3.80
2023-01-30T14:25:25.891Z,3.80
2023-01-30T14:27:54.018Z,3.77
2023-01-30T14:30:39.437Z,3.27
2023-01-30T14:33:31.992Z,3.53
2023-01-30T14:35:59.085Z,3.53
2023-01-30T14:38:26.913Z,3.60
2023-01-30T14:41:02.775Z,3.83
2023-01-30T14:43:35.907Z,3.30
2023-01-30T14:46:07.509Z,3.73
2023-01-30T14:48:36.917Z,4.33
2023-01-30T14:51:35.963Z,3.93
2023-01-30T14:54:15.198Z,3.33
2023-01-30T14:56:44.944Z,3.30
2023-01-30T14:59:18.589Z,3.70
2023-01-30T15:02:04.376Z,4.07
2023-01-30T15:04:33.159Z,3.33
2023-01-30T15:07:01.744Z,3.30
2023-01-30T15:09:30.727Z,3.00
2023-01-30T15:12:18.050Z,3.37
2023-01-30T15:15:23.557Z,3.43
2023-01-30T15:18:07.836Z,3.20
2023-01-30T15:20:45.184Z,3.13
2023-01-30T15:23:43.467Z,3.43
2023-01-30T15:26:18.376Z,3.23
2023-01-30T15:29:05.936Z,3.67
2023-01-30T15:31:33.716Z,3.53
2023-01-30T15:34:00.825Z,4.57
2023-01-30T15:36:33.285Z,4.40
2023-01-30T15:39:04.805Z,3.53
2023-01-30T15:41:33.163Z,3.07
2023-01-30T15:44:25.678Z,3.37
2023-01-30T15:47:02.046Z,2.80
2023-01-30T15:50:08.500Z,3.33
2023-01-30T15:52:40.258Z,2.87
2023-01-30T15:55:15.101Z,2.97
2023-01-30T15:57:44.318Z,3.20
2023-01-30T16:00:19.283Z,3.27
2023-01-30T16:02:46.716Z,4.17
2023-01-30T16:05:17.497Z,3.20
2023-01-30T16:07:45.347Z,3.27
2023-01-30T16:10:20.943Z,3.73
2023-01-30T16:12:49.082Z,3.83
2023-01-30T16:15:29.951Z,3.90
2023-01-30T16:18:18.232Z,3.67
2023-01-30T16:21:01.481Z,3.40
2023-01-30T16:23:41.168Z,3.60
2023-01-30T16:26:10.268Z,3.73
2023-01-30T16:28:37.428Z,3.63
2023-01-30T16:31:06.612Z,3.57
2023-01-30T16:33:37.485Z,4.17
2023-01-30T16:36:05.839Z,3.50
2023-01-30T16:38:37.214Z,3.20
2023-01-30T16:41:04.778Z,4.00
2023-01-30T16:43:33.409Z,3.47
2023-01-30T16:46:19.884Z,3.63
2023-01-30T16:48:47.070Z,3.93
2023-01-30T16:51:18.851Z,3.30
2023-01-30T16:54:04.906Z,3.73
2023-01-30T16:56:34.487Z,3.40
2023-01-30T16:59:02.137Z,4.07
2023-01-30T17:01:37.993Z,3.73
2023-01-30T17:04:07.793Z,3.37
2023-01-30T17:06:39.934Z,3.73
2023-01-30T17:09:46.837Z,5.23
2023-01-30T17:12:25.691Z,6.97
2023-01-30T17:15:13.801Z,5.30
2023-01-30T17:17:41.466Z,5.33
2023-01-30T17:20:09.054Z,4.00
2023-01-30T17:22:37.560Z,5.07
2023-01-30T17:25:06.577Z,3.00
2023-01-30T17:27:34.373Z,3.90
2023-01-30T17:30:01.059Z,3.47
2023-01-30T17:32:28.215Z,4.57
2023-01-30T17:34:55.967Z,4.40
2023-01-30T17:37:23.066Z,5.33
2023-01-30T17:39:50.168Z,5.27
2023-01-30T17:42:22.154Z,4.83
2023-01-30T17:44:49.647Z,5.07
2023-01-30T17:47:16.809Z,3.53
2023-01-30T17:49:43.527Z,4.00
2023-01-30T17:52:13.175Z,4.57
2023-01-30T17:54:39.869Z,4.60
2023-01-30T17:57:09.709Z,4.73
2023-01-30T17:59:36.847Z,4.10
2023-01-30T18:02:03.885Z,4.40
2023-01-30T18:04:30.590Z,4.40
2023-01-30T18:07:04.365Z,4.43
2023-01-30T18:09:31.890Z,4.83
2023-01-30T18:11:58.578Z,4.30
2023-01-30T18:14:25.697Z,4.03
2023-01-30T18:16:52.653Z,3.83
2023-01-30T18:19:23.865Z,3.57
2023-01-30T18:21:50.700Z,4.47
2023-01-30T18:24:18.371Z,3.40
2023-01-30T18:26:45.622Z,3.70
2023-01-30T18:29:12.895Z,4.30
2023-01-30T18:31:40.691Z,3.70
2023-01-30T18:34:09.759Z,4.00
2023-01-30T18:36:37.451Z,4.30
2023-01-30T18:39:05.389Z,3.70
2023-01-30T18:41:32.435Z,3.90
2023-01-30T18:44:04.573Z,5.70
2023-01-30T18:46:32.273Z,4.93
2023-01-30T18:48:59.392Z,5.07
2023-01-30T18:51:28.466Z,4.33
2023-01-30T18:53:55.998Z,3.80
2023-01-30T18:56:29.468Z,4.43
2023-01-30T18:58:56.687Z,5.27
2023-01-30T19:01:28.413Z,4.77
2023-01-30T19:03:59.739Z,4.03
2023-01-30T19:06:27.545Z,6.37
2023-01-30T19:08:54.445Z,8.07
2023-01-30T19:11:40.881Z,6.03
2023-01-30T19:14:08.908Z,4.33
2023-01-30T19:16:37.497Z,5.77
2023-01-30T19:19:04.998Z,4.63
2023-01-30T19:21:32.196Z,4.40
2023-01-30T19:23:59.650Z,4.43
2023-01-30T19:26:28.902Z,5.43
2023-01-30T19:28:55.651Z,3.97
2023-01-30T19:31:23.002Z,4.50
2023-01-30T19:34:00.672Z,4.13
2023-01-30T19:36:30.230Z,3.63
2023-01-30T19:38:59.607Z,4.00
2023-01-30T19:41:29.216Z,4.57
2023-01-30T19:43:57.461Z,5.97
2023-01-30T19:46:24.608Z,5.20
2023-01-30T19:48:51.823Z,7.43
2023-01-30T19:51:27.611Z,5.77
2023-01-30T19:53:56.627Z,4.60
2023-01-30T19:56:25.331Z,3.83
2023-01-30T19:58:55.043Z,5.93
2023-01-30T20:01:23.242Z,5.53
2023-01-30T20:03:50.042Z,5.20
2023-01-30T20:06:37.265Z,6.10
2023-01-30T20:09:06.989Z,8.50
2023-01-30T20:11:35.854Z,7.87
2023-01-30T20:14:04.722Z,6.87
2023-01-30T20:16:31.949Z,5.00
2023-01-30T20:19:03.885Z,6.47
2023-01-30T20:21:31.391Z,5.33
2023-01-30T20:23:58.354Z,4.63
2023-01-30T20:26:35.107Z,5.03
2023-01-30T20:29:03.802Z,4.73
2023-01-30T20:31:31.237Z,4.50
2023-01-30T20:34:01.337Z,5.70
2023-01-30T20:36:28.539Z,5.33
2023-01-30T20:38:56.541Z,5.20
2023-01-30T20:41:25.990Z,4.30
2023-01-30T20:43:56.574Z,3.73
2023-01-30T20:46:28.451Z,4.50
2023-01-30T20:48:57.149Z,4.10
2023-01-30T20:51:26.526Z,3.50
2023-01-30T20:53:56.054Z,3.70
2023-01-30T20:56:24.527Z,4.03
2023-01-30T20:58:51.676Z,4.53
2023-01-30T21:01:21.487Z,4.43
2023-01-30T21:03:52.861Z,4.03
2023-01-30T21:06:42.801Z,4.20
2023-01-30T21:09:21.178Z,3.60
2023-01-30T21:11:48.962Z,4.10
2023-01-30T21:14:16.619Z,4.17
2023-01-30T21:16:43.811Z,3.70
2023-01-30T21:19:15.819Z,3.90
2023-01-30T21:21:52.654Z,4.00
2023-01-30T21:24:25.639Z,4.00
2023-01-30T21:26:53.020Z,4.87
2023-01-30T21:29:22.800Z,4.23
2023-01-30T21:31:50.273Z,4.07
2023-01-30T21:34:17.099Z,3.77
2023-01-30T21:36:43.765Z,4.73
2023-01-30T21:39:32.344Z,3.80
2023-01-30T21:42:19.257Z,3.63
2023-01-30T21:44:47.132Z,4.30
2023-01-30T21:47:13.824Z,4.43
2023-01-30T21:49:43.899Z,3.67
2023-01-30T21:52:10.608Z,4.47
2023-01-30T21:54:37.756Z,3.77
2023-01-30T21:57:04.873Z,4.07
2023-01-30T21:59:31.969Z,6.37
2023-01-30T22:01:58.616Z,5.90
2023-01-30T22:04:25.365Z,4.77
2023-01-30T22:06:52.493Z,5.33
2023-01-30T22:09:19.187Z,5.10
2023-01-30T22:11:46.197Z,5.70
2023-01-30T22:14:14.090Z,5.93
2023-01-30T22:16:41.818Z,5.03
2023-01-30T22:19:09.615Z,4.87
2023-01-30T22:21:39.910Z,5.57
2023-01-30T22:24:08.424Z,5.10
2023-01-30T22:26:36.685Z,4.83
2023-01-30T22:29:04.892Z,5.20
2023-01-30T22:31:34.603Z,5.00
2023-01-30T22:34:03.562Z,5.23
2023-01-30T22:36:33.267Z,4.73
2023-01-30T22:39:00.021Z,4.97
2023-01-30T22:41:28.424Z,5.53
2023-01-30T22:43:57.059Z,5.27
2023-01-30T22:46:34.951Z,4.90
2023-01-30T22:49:03.206Z,4.93
2023-01-30T22:51:39.371Z,4.63
2023-01-30T22:54:09.361Z,4.87
2023-01-30T22:56:41.633Z,4.90
2023-01-30T22:59:09.410Z,5.10
2023-01-30T23:01:39.254Z,5.60
2023-01-30T23:04:20.936Z,5.30
2023-01-30T23:06:48.901Z,4.70
2023-01-30T23:09:19.693Z,5.47
2023-01-30T23:12:08.973Z,4.90
2023-01-30T23:14:36.923Z,5.03
2023-01-30T23:17:26.706Z,4.40
2023-01-30T23:19:54.482Z,4.33
2023-01-30T23:22:21.693Z,4.20
2023-01-30T23:24:48.991Z,4.90
2023-01-30T23:27:16.149Z,4.40
2023-01-30T23:29:43.129Z,4.00
2023-01-30T23:32:10.323Z,4.20
2023-01-30T23:34:37.749Z,3.87
2023-01-30T23:37:04.593Z,4.30
2023-01-30T23:39:31.325Z,4.70
2023-01-30T23:41:57.998Z,4.10
2023-01-30T23:44:25.081Z,4.13
2023-01-30T23:46:52.456Z,3.70
2023-01-30T23:49:19.559Z,3.80
2023-01-30T23:51:46.873Z,4.40
2023-01-30T23:54:14.099Z,4.30
2023-01-30T23:56:43.311Z,3.80
2023-01-30T23:59:10.948Z,4.90
